Sainte Marie — WDC2815 — position and weather

sailwx.info

Track history (hours):
 
Tides and Currents Weather Stations Pressure Air Temp Water Temp Dewpoint Dewpoint Depression Visibility Wind Speed Wind Dir Waves Ship Positions

Sainte Marie

Owner: Marquette Transportation Company Gulf-Inland, LLC, Jefferson, LA. More information available from US FCC via Universal Licensing System and Coast Guard Vessel Documentation Center.

Last reported at 2017-Oct-16 16:12 UTC. Time now 2017-Oct-17 16:52 UTC.
Position N 30°03' W 093°43'.

Length 173 m; draft 2.7 m.

Type: . MMSI: 366998050.

Date/timePositionNaut miles runAvg speedWind from/ knotsBaromVisibWave heightAir tempDewpointWater temp
2017-Oct-16 16:12N 30°03' W 093°43'1 5.6
2017-Oct-16 16:00N 30°04' W 093°41'3 5.3
2017-Oct-16 15:30N 30°04' W 093°38'3 5.2
2017-Oct-16 15:00N 30°04' W 093°35'5 4.9
2017-Oct-16 14:00N 30°04' W 093°30'2 4.9
2017-Oct-16 13:30N 30°04' W 093°27'2 4.9
2017-Oct-16 13:00N 30°04' W 093°24'2 4.5
2017-Oct-16 12:30N 30°04' W 093°22'2 3.7
2017-Oct-16 12:00N 30°05' W 093°20'2 3.7
2017-Oct-16 11:30N 30°06' W 093°18'2 4.2
2017-Oct-16 11:00N 30°04' W 093°16'2 3.1
2017-Oct-16 10:30N 30°03' W 093°16'2 3.9
2017-Oct-16 10:00N 30°02' W 093°14'2 3.3
2017-Oct-16 09:30N 30°00' W 093°14'2 4.4
2017-Oct-16 09:00N 29°58' W 093°12'2 4.4
2017-Oct-16 08:30N 29°57' W 093°10'2 3.6
2017-Oct-16 08:00N 29°56' W 093°08'41 4.1
2017-Oct-15 22:11N 29°51' W 092°22'1 4.2
2017-Oct-15 22:00N 29°51' W 092°21'1 2.3
2017-Oct-15 21:29N 29°50' W 092°20'2 4.1
2017-Oct-15 21:00N 29°49' W 092°18'2 4.3
2017-Oct-15 20:30N 29°48' W 092°15'2 4.9
2017-Oct-15 20:00N 29°47' W 092°13'2 4.5
2017-Oct-15 19:30N 29°47' W 092°10'2 4.9
2017-Oct-15 19:00N 29°47' W 092°08'3 5.6
2017-Oct-15 18:30N 29°48' W 092°05'  
2017-Oct-13 03:03N 29°51' W 091°51'1 4.4
2017-Oct-13 02:43N 29°51' W 091°53'1 3.9
2017-Oct-13 02:30N 29°51' W 091°54'1 2.4
2017-Oct-13 01:59N 29°51' W 091°55'2 3.4
2017-Oct-13 01:30N 29°50' W 091°57'2 4.2
2017-Oct-13 01:00N 29°50' W 091°59'2 3.6
2017-Oct-13 00:30N 29°49' W 092°01'2 3.8
2017-Oct-13 00:00N 29°49' W 092°03'1 2.3
2017-Oct-12 23:30N 29°48' W 092°05'2 3.1
2017-Oct-12 23:00N 29°48' W 092°06'2 3.9
2017-Oct-12 22:30N 29°47' W 092°08'2 4.0
2017-Oct-12 22:00N 29°47' W 092°11'1 2.4
2017-Oct-12 21:30N 29°47' W 092°12'2 4.0
2017-Oct-12 21:00N 29°48' W 092°14'2 3.6
2017-Oct-12 20:30N 29°49' W 092°16'0 0.3
2017-Oct-12 20:00N 29°49' W 092°16'0 0.0
2017-Oct-12 19:30N 29°49' W 092°16'0 0.2
2017-Oct-12 19:00N 29°49' W 092°16'0 0.9
2017-Oct-12 18:30N 29°49' W 092°17'0 0.9
2017-Oct-12 18:00N 29°49' W 092°17'0 0.9
2017-Oct-12 17:30N 29°49' W 092°18'0 0.0
2017-Oct-12 17:00N 29°49' W 092°18'0 0.0
2017-Oct-12 16:30N 29°49' W 092°18'0 0.0
2017-Oct-12 16:00N 29°49' W 092°18'0 0.1
2017-Oct-12 15:30N 29°49' W 092°18'0 0.2
2017-Oct-12 15:00N 29°50' W 092°18'1 1.4
2017-Oct-12 14:30N 29°50' W 092°18'2 3.4
2017-Oct-12 14:00N 29°51' W 092°20'3 2.7
2017-Oct-12 12:59N 29°52' W 092°23'18 3.7
2017-Oct-12 08:00N 29°57' W 092°43'2 3.8
2017-Oct-12 07:30N 29°58' W 092°45'2 3.5
2017-Oct-12 07:00N 29°58' W 092°47'2 3.9
2017-Oct-12 06:30N 29°58' W 092°49'2 4.1
2017-Oct-12 06:00N 29°57' W 092°51'4 3.7
2017-Oct-12 04:50N 29°56' W 092°56'1 3.7
2017-Oct-12 04:30N 29°56' W 092°58'2 3.8
2017-Oct-12 04:00N 29°56' W 092°60'2 3.8
2017-Oct-12 03:30N 29°56' W 093°02'2 3.8
2017-Oct-12 03:00N 29°56' W 093°04'2 3.8
2017-Oct-12 02:30N 29°56' W 093°06'2 3.5
2017-Oct-12 02:00N 29°56' W 093°08'2 3.4
2017-Oct-12 01:30N 29°57' W 093°10'2 3.7
2017-Oct-12 01:00N 29°58' W 093°12'1 2.7
2017-Oct-12 00:30N 29°59' W 093°13'2 3.7
2017-Oct-12 00:00N 30°01' W 093°14'2 3.5
2017-Oct-11 23:30N 30°02' W 093°15'2 3.7
2017-Oct-11 23:00N 30°04' W 093°16'1 2.7
2017-Oct-11 22:30N 30°05' W 093°17'1 2.8
2017-Oct-11 22:00N 30°06' W 093°18'1 1.2
2017-Oct-11 21:30N 30°06' W 093°19'1 1.2
2017-Oct-11 21:00N 30°06' W 093°19'0 0.0
2017-Oct-11 20:30N 30°06' W 093°19'0 0.1
2017-Oct-11 20:00N 30°06' W 093°19'0 0.0
2017-Oct-11 19:30N 30°06' W 093°19'0 0.0
2017-Oct-11 19:00N 30°06' W 093°19'0 0.0
2017-Oct-11 18:30N 30°06' W 093°19'0 0.0
2017-Oct-11 18:00N 30°06' W 093°19'0 0.0
2017-Oct-11 17:30N 30°06' W 093°19'0 0.1
2017-Oct-11 17:00N 30°06' W 093°19'4 0.2
2017-Oct-11 00:00N 30°04' W 093°23'0 0.0
2017-Oct-10 23:30N 30°04' W 093°23'0 0.9
2017-Oct-10 23:00N 30°04' W 093°24'3 5.0
2017-Oct-10 22:30N 30°04' W 093°26'3 5.4
2017-Oct-10 22:00N 30°04' W 093°30'3 5.5
2017-Oct-10 21:30N 30°04' W 093°33'3 5.1
2017-Oct-10 21:00N 30°04' W 093°36'2 4.8
2017-Oct-10 20:30N 30°04' W 093°38'72 3.5
2017-Oct-09 23:42N 29°30' W 094°52'1 5.4
2017-Oct-09 23:30N 29°31' W 094°53'3 5.6
2017-Oct-09 23:00N 29°33' W 094°55'3 5.8
2017-Oct-09 22:30N 29°36' W 094°57'3 6.0
2017-Oct-09 21:59N 29°38' W 094°58'3 6.1
2017-Oct-09 21:30N 29°41' W 094°59'7 0.7
2017-Oct-09 10:05N 29°47' W 095°05'0 0.1
2017-Oct-09 10:00N 29°47' W 095°05'1 1.7
2017-Oct-09 09:30N 29°46' W 095°05'2 3.2
2017-Oct-09 09:00N 29°45' W 095°04'3 4.8
2017-Oct-09 08:27N 29°43' W 095°01'2 3.9
2017-Oct-09 08:00N 29°42' W 094°60'3 5.1
2017-Oct-09 07:30N 29°40' W 094°58'3 5.9
2017-Oct-09 07:00N 29°37' W 094°57'3 5.8
2017-Oct-09 06:30N 29°34' W 094°56'3 6.1
2017-Oct-09 06:00N 29°32' W 094°54'55 2.8
2017-Oct-08 10:12N 29°53' W 093°55'15 1.1
2017-Oct-07 20:53N 30°03' W 093°43'2 4.3
2017-Oct-07 20:30N 30°04' W 093°41'2 4.1
2017-Oct-07 20:00N 30°04' W 093°39'2 4.1
2017-Oct-07 19:30N 30°04' W 093°36'2 3.5
2017-Oct-07 19:00N 30°04' W 093°34'2 3.9
2017-Oct-07 18:30N 30°04' W 093°32'2 3.9
2017-Oct-07 18:00N 30°04' W 093°30'2 3.8
2017-Oct-07 17:30N 30°04' W 093°28'2 4.0
2017-Oct-07 17:00N 30°04' W 093°25'2 4.1
2017-Oct-07 16:30N 30°04' W 093°23'1 2.7
2017-Oct-07 16:00N 30°04' W 093°21'0 0.5
2017-Oct-07 15:30N 30°04' W 093°22'1 1.8
2017-Oct-07 15:00N 30°04' W 093°23'3 6.2
2017-Oct-07 14:30N 30°04' W 093°26'3 6.7
2017-Oct-07 14:00N 30°04' W 093°30'3 6.7
2017-Oct-07 13:30N 30°04' W 093°34'4 7.4
2017-Oct-07 13:00N 30°04' W 093°38'  
Track history (hours):
 
Tides and Currents Weather Stations Pressure Air Temp Water Temp Dewpoint Dewpoint Depression Visibility Wind Speed Wind Dir Waves Ship Positions

Sainte Marie

Owner: Marquette Transportation Company Gulf-Inland, LLC, Jefferson, LA. More information available from US FCC via Universal Licensing System and Coast Guard Vessel Documentation Center.

Last reported at 2017-Oct-16 16:12 UTC. Time now 2017-Oct-17 16:52 UTC.
Position N 30°03' W 093°43'.

Length 173 m; draft 2.7 m.

Type: . MMSI: 366998050.

Date/timePositionNaut miles runAvg speedWind from/ knotsBaromVisibWave heightAir tempDewpointWater temp
2017-Oct-16 16:12N 30°03' W 093°43'1 5.6
2017-Oct-16 16:00N 30°04' W 093°41'3 5.3
2017-Oct-16 15:30N 30°04' W 093°38'3 5.2
2017-Oct-16 15:00N 30°04' W 093°35'5 4.9
2017-Oct-16 14:00N 30°04' W 093°30'2 4.9
2017-Oct-16 13:30N 30°04' W 093°27'2 4.9
2017-Oct-16 13:00N 30°04' W 093°24'2 4.5
2017-Oct-16 12:30N 30°04' W 093°22'2 3.7
2017-Oct-16 12:00N 30°05' W 093°20'2 3.7
2017-Oct-16 11:30N 30°06' W 093°18'2 4.2
2017-Oct-16 11:00N 30°04' W 093°16'2 3.1
2017-Oct-16 10:30N 30°03' W 093°16'2 3.9
2017-Oct-16 10:00N 30°02' W 093°14'2 3.3
2017-Oct-16 09:30N 30°00' W 093°14'2 4.4
2017-Oct-16 09:00N 29°58' W 093°12'2 4.4
2017-Oct-16 08:30N 29°57' W 093°10'2 3.6
2017-Oct-16 08:00N 29°56' W 093°08'41 4.1
2017-Oct-15 22:11N 29°51' W 092°22'1 4.2
2017-Oct-15 22:00N 29°51' W 092°21'1 2.3
2017-Oct-15 21:29N 29°50' W 092°20'2 4.1
2017-Oct-15 21:00N 29°49' W 092°18'2 4.3
2017-Oct-15 20:30N 29°48' W 092°15'2 4.9
2017-Oct-15 20:00N 29°47' W 092°13'2 4.5
2017-Oct-15 19:30N 29°47' W 092°10'2 4.9
2017-Oct-15 19:00N 29°47' W 092°08'3 5.6
2017-Oct-15 18:30N 29°48' W 092°05'  
2017-Oct-13 03:03N 29°51' W 091°51'1 4.4
2017-Oct-13 02:43N 29°51' W 091°53'1 3.9
2017-Oct-13 02:30N 29°51' W 091°54'1 2.4
2017-Oct-13 01:59N 29°51' W 091°55'2 3.4
2017-Oct-13 01:30N 29°50' W 091°57'2 4.2
2017-Oct-13 01:00N 29°50' W 091°59'2 3.6
2017-Oct-13 00:30N 29°49' W 092°01'2 3.8
2017-Oct-13 00:00N 29°49' W 092°03'1 2.3
2017-Oct-12 23:30N 29°48' W 092°05'2 3.1
2017-Oct-12 23:00N 29°48' W 092°06'2 3.9
2017-Oct-12 22:30N 29°47' W 092°08'2 4.0
2017-Oct-12 22:00N 29°47' W 092°11'1 2.4
2017-Oct-12 21:30N 29°47' W 092°12'2 4.0
2017-Oct-12 21:00N 29°48' W 092°14'2 3.6
2017-Oct-12 20:30N 29°49' W 092°16'0 0.3
2017-Oct-12 20:00N 29°49' W 092°16'0 0.0
2017-Oct-12 19:30N 29°49' W 092°16'0 0.2
2017-Oct-12 19:00N 29°49' W 092°16'0 0.9
2017-Oct-12 18:30N 29°49' W 092°17'0 0.9
2017-Oct-12 18:00N 29°49' W 092°17'0 0.9
2017-Oct-12 17:30N 29°49' W 092°18'0 0.0
2017-Oct-12 17:00N 29°49' W 092°18'0 0.0
2017-Oct-12 16:30N 29°49' W 092°18'0 0.0
2017-Oct-12 16:00N 29°49' W 092°18'0 0.1
2017-Oct-12 15:30N 29°49' W 092°18'0 0.2
2017-Oct-12 15:00N 29°50' W 092°18'1 1.4
2017-Oct-12 14:30N 29°50' W 092°18'2 3.4
2017-Oct-12 14:00N 29°51' W 092°20'3 2.7
2017-Oct-12 12:59N 29°52' W 092°23'18 3.7
2017-Oct-12 08:00N 29°57' W 092°43'2 3.8
2017-Oct-12 07:30N 29°58' W 092°45'2 3.5
2017-Oct-12 07:00N 29°58' W 092°47'2 3.9
2017-Oct-12 06:30N 29°58' W 092°49'2 4.1
2017-Oct-12 06:00N 29°57' W 092°51'4 3.7
2017-Oct-12 04:50N 29°56' W 092°56'1 3.7
2017-Oct-12 04:30N 29°56' W 092°58'2 3.8
2017-Oct-12 04:00N 29°56' W 092°60'2 3.8
2017-Oct-12 03:30N 29°56' W 093°02'2 3.8
2017-Oct-12 03:00N 29°56' W 093°04'2 3.8
2017-Oct-12 02:30N 29°56' W 093°06'2 3.5
2017-Oct-12 02:00N 29°56' W 093°08'2 3.4
2017-Oct-12 01:30N 29°57' W 093°10'2 3.7
2017-Oct-12 01:00N 29°58' W 093°12'1 2.7
2017-Oct-12 00:30N 29°59' W 093°13'2 3.7
2017-Oct-12 00:00N 30°01' W 093°14'2 3.5
2017-Oct-11 23:30N 30°02' W 093°15'2 3.7
2017-Oct-11 23:00N 30°04' W 093°16'1 2.7
2017-Oct-11 22:30N 30°05' W 093°17'1 2.8
2017-Oct-11 22:00N 30°06' W 093°18'1 1.2
2017-Oct-11 21:30N 30°06' W 093°19'1 1.2
2017-Oct-11 21:00N 30°06' W 093°19'0 0.0
2017-Oct-11 20:30N 30°06' W 093°19'0 0.1
2017-Oct-11 20:00N 30°06' W 093°19'0 0.0
2017-Oct-11 19:30N 30°06' W 093°19'0 0.0
2017-Oct-11 19:00N 30°06' W 093°19'0 0.0
2017-Oct-11 18:30N 30°06' W 093°19'0 0.0
2017-Oct-11 18:00N 30°06' W 093°19'0 0.0
2017-Oct-11 17:30N 30°06' W 093°19'0 0.1
2017-Oct-11 17:00N 30°06' W 093°19'4 0.2
2017-Oct-11 00:00N 30°04' W 093°23'0 0.0
2017-Oct-10 23:30N 30°04' W 093°23'0 0.9
2017-Oct-10 23:00N 30°04' W 093°24'3 5.0
2017-Oct-10 22:30N 30°04' W 093°26'3 5.4
2017-Oct-10 22:00N 30°04' W 093°30'3 5.5
2017-Oct-10 21:30N 30°04' W 093°33'3 5.1
2017-Oct-10 21:00N 30°04' W 093°36'2 4.8
2017-Oct-10 20:30N 30°04' W 093°38'72 3.5
2017-Oct-09 23:42N 29°30' W 094°52'1 5.4
2017-Oct-09 23:30N 29°31' W 094°53'3 5.6
2017-Oct-09 23:00N 29°33' W 094°55'3 5.8
2017-Oct-09 22:30N 29°36' W 094°57'3 6.0
2017-Oct-09 21:59N 29°38' W 094°58'3 6.1
2017-Oct-09 21:30N 29°41' W 094°59'7 0.7
2017-Oct-09 10:05N 29°47' W 095°05'0 0.1
2017-Oct-09 10:00N 29°47' W 095°05'1 1.7
2017-Oct-09 09:30N 29°46' W 095°05'2 3.2
2017-Oct-09 09:00N 29°45' W 095°04'3 4.8
2017-Oct-09 08:27N 29°43' W 095°01'2 3.9
2017-Oct-09 08:00N 29°42' W 094°60'3 5.1
2017-Oct-09 07:30N 29°40' W 094°58'3 5.9
2017-Oct-09 07:00N 29°37' W 094°57'3 5.8
2017-Oct-09 06:30N 29°34' W 094°56'3 6.1
2017-Oct-09 06:00N 29°32' W 094°54'55 2.8
2017-Oct-08 10:12N 29°53' W 093°55'15 1.1
2017-Oct-07 20:53N 30°03' W 093°43'2 4.3
2017-Oct-07 20:30N 30°04' W 093°41'2 4.1
2017-Oct-07 20:00N 30°04' W 093°39'2 4.1
2017-Oct-07 19:30N 30°04' W 093°36'2 3.5
2017-Oct-07 19:00N 30°04' W 093°34'2 3.9
2017-Oct-07 18:30N 30°04' W 093°32'2 3.9
2017-Oct-07 18:00N 30°04' W 093°30'2 3.8
2017-Oct-07 17:30N 30°04' W 093°28'2 4.0
2017-Oct-07 17:00N 30°04' W 093°25'2 4.1
2017-Oct-07 16:30N 30°04' W 093°23'1 2.7
2017-Oct-07 16:00N 30°04' W 093°21'0 0.5
2017-Oct-07 15:30N 30°04' W 093°22'1 1.8
2017-Oct-07 15:00N 30°04' W 093°23'3 6.2
2017-Oct-07 14:30N 30°04' W 093°26'3 6.7
2017-Oct-07 14:00N 30°04' W 093°30'3 6.7
2017-Oct-07 13:30N 30°04' W 093°34'4 7.4
2017-Oct-07 13:00N 30°04' W 093°38'  

Dump ship's entire track history